Home > Products > Valid Products > MTR

000
SAUS44 KEWX 170352
MTRATT
METAR KATT 170351Z AUTO 17004KT 10SM CLR 16/08 A3000 RMK AO2 SLP154
T01560083





000
SAUS44 KEWX 170252
MTRATT
METAR KATT 170251Z AUTO 15009G16KT 120V200 10SM CLR 17/08 A2998 RMK
AO2 SLP151 T01670083 53011





000
SAUS44 KEWX 170152
MTRATT
METAR KATT 170151Z AUTO 14010G16KT 10SM CLR 17/08 A2995 RMK AO2
SLP142 T01720083





000
SAUS44 KEWX 170052
MTRATT
METAR KATT 170051Z AUTO 14011G19KT 10SM CLR 18/08 A2995 RMK AO2
SLP140 T01830083





000
SAUS44 KEWX 162352
MTRATT
METAR KATT 162351Z AUTO 16009G19KT 10SM CLR 20/08 A2995 RMK AO2
SLP142 T02000078 10228 20183 56010





000
SAUS44 KEWX 162252
MTRATT
METAR KATT 162251Z AUTO 18006G17KT 10SM FEW060 22/07 A2995 RMK AO2
SLP142 T02170072





000
SAUS44 KEWX 162152
MTRATT
METAR KATT 162151Z AUTO 10SM CLR 22/07 A2996 RMK AO2 SLP141
T02220067





000
SAUS44 KEWX 162052
MTRATT
METAR KATT 162051Z AUTO 18008G17KT 10SM CLR 22/06 A2998 RMK AO2
SLP150 T02220061 56035





000
SAUS44 KEWX 161953
MTRATT
METAR KATT 161951Z AUTO 17008G18KT 10SM CLR 22/06 A3002 RMK AO2
SLP162 T02170056





000
SAUS44 KEWX 161852
MTRATT
METAR KATT 161851Z AUTO 15013G19KT 10SM CLR 21/05 A3004 RMK AO2
SLP172 T02060050





000
SAUS44 KEWX 161753
MTRATT
METAR KATT 161751Z AUTO 18008G18KT 150V210 10SM CLR 19/04 A3009 RMK
AO2 SLP187 T01890044 10194 20050 58016





000
SAUS44 KEWX 161653
MTRATT
METAR KATT 161651Z AUTO 18009G18KT 10SM CLR 18/05 A3012 RMK AO2
SLP197 T01830050





000
SAUS44 KEWX 161552
MTRATT
METAR KATT 161551Z AUTO 15008G17KT 110V200 10SM CLR 16/05 A3013 RMK
AO2 SLP202 T01610050





000
SAUS44 KEWX 161452
MTRATT
METAR KATT 161451Z AUTO VRB04KT 10SM CLR 12/02 A3013 RMK AO2 SLP204
T01220017 50003





000
SAUS44 KEWX 161352
MTRATT
METAR KATT 161351Z AUTO 00000KT 10SM CLR 10/02 A3015 RMK AO2 SLP209
T01000022





000
SAUS44 KEWX 161252
MTRATT
METAR KATT 161251Z AUTO 00000KT 10SM CLR 06/02 A3015 RMK AO2 SLP210
T00560017





000
SAUS44 KEWX 161153
MTRATT
METAR KATT 161151Z AUTO 00000KT 10SM CLR 05/01 A3013 RMK AO2 SLP202
T00500006 10083 20044 53001





000
SAUS44 KEWX 161052
MTRATT
METAR KATT 161051Z AUTO 00000KT 10SM CLR 05/01 A3011 RMK AO2 SLP195
T00500006





000
SAUS44 KEWX 160952
MTRATT
METAR KATT 160951Z AUTO 00000KT 10SM CLR 06/00 A3011 RMK AO2 SLP195
T00610000





000
SAUS44 KEWX 160852
MTRATT
METAR KATT 160851Z AUTO 20003KT 10SM CLR 07/M01 A3012 RMK AO2 SLP200
T00721006 58008





000
SAUS44 KEWX 160752
MTRATT
METAR KATT 160751Z AUTO 22003KT 10SM CLR 07/01 A3014 RMK AO2 SLP205
T00670006





000
SAUS44 KEWX 160652
MTRATT
METAR KATT 160651Z AUTO 20003KT 10SM CLR 07/01 A3015 RMK AO2 SLP210
T00670011





000
SAUS44 KEWX 160553
MTRATT
METAR KATT 160551Z AUTO 00000KT 10SM CLR 08/02 A3015 RMK AO2 SLP209
T00780017 10156 20078 401830039 58008





000
SAUS44 KEWX 160452
MTRATT
METAR KATT 160451Z AUTO 00000KT 10SM CLR 10/M01 A3015 RMK AO2 SLP209
T01001006





000
SAUS44 KEWX 160352
MTRATT
METAR KATT 160351Z AUTO 13003KT 10SM CLR 11/M01 A3017 RMK AO2 SLP217
T01061006





000
SAUS44 KEWX 160252
MTRATT
METAR KATT 160251Z AUTO 12004KT 10SM CLR 12/M01 A3017 RMK AO2 SLP217
T01171011 53002





000
SAUS44 KEWX 160153
MTRATT
METAR KATT 160151Z AUTO 12004KT 10SM CLR 13/M02 A3016 RMK AO2 SLP214
T01331022





000
SAUS44 KEWX 160053
MTRATT
METAR KATT 160051Z AUTO VRB05KT 10SM CLR 14/M03 A3016 RMK AO2 SLP213
T01391028





000
SAUS44 KEWX 152352
MTRATT
METAR KATT 152351Z AUTO 12006KT 10SM CLR 16/M04 A3016 RMK AO2 SLP216
T01561039 10183 20144 56021





000
SAUS44 KEWX 152252
MTRATT
METAR KATT 152251Z AUTO 00000KT 10SM CLR 17/M04 A3018 RMK AO2 SLP220
T01721044





000
SAUS44 KEWX 152152
MTRATT
METAR KATT 152151Z AUTO VRB04KT 10SM CLR 18/M05 A3020 RMK AO2 SLP225
T01781050





000
SAUS44 KEWX 152052
MTRATT
METAR KATT 152051Z AUTO 00000KT 10SM CLR 17/M07 A3023 RMK AO2 SLP237
T01671067 56034





000
SAUS44 KEWX 151952
MTRATT
METAR KATT 151951Z AUTO 34004KT 10SM CLR 17/M07 A3026 RMK AO2 SLP247
T01671067





000
SAUS44 KEWX 151852
MTRATT
METAR KATT 151851Z AUTO 13008KT 10SM CLR 16/M07 A3029 RMK AO2 SLP259
T01561067





000
SAUS44 KEWX 151752
MTRATT
METAR KATT 151751Z AUTO 10SM CLR 15/M08 A3033 RMK AO2 SLP271
T01501083 10156 20039 58015





000
SAUS44 KEWX 151652
MTRATT
METAR KATT 151651Z AUTO 02007KT 10SM CLR 14/M08 A3036 RMK AO2 SLP280
T01391083





000
SAUS44 KEWX 151552
MTRATT
METAR KATT 151551Z AUTO VRB06KT 10SM CLR 13/M09 A3037 RMK AO2 SLP286
T01281089





000
SAUS44 KEWX 151452
MTRATT
METAR KATT 151451Z AUTO VRB04KT 10SM CLR 11/M08 A3037 RMK AO2 SLP286
T01111083 51010





000
SAUS44 KEWX 151352
MTRATT
METAR KATT 151351Z AUTO 00000KT 10SM CLR 09/M04 A3037 RMK AO2 SLP285
T00891044





000
SAUS44 KEWX 151252
MTRATT
METAR KATT 151251Z AUTO 00000KT 10SM CLR 06/M03 A3036 RMK AO2 SLP282
T00561028





000
SAUS44 KEWX 151152
MTRATT
METAR KATT 151151Z AUTO 00000KT 10SM CLR 04/M03 A3034 RMK AO2 SLP278
70134 T00441028 10083 20039 53015 $





000
SAUS44 KEWX 151053
MTRATT
METAR KATT 151051Z AUTO 35004KT 10SM CLR 06/M03 A3033 RMK AO2 SLP271
T00561028 $





000
SAUS44 KEWX 150953
MTRATT
METAR KATT 150951Z AUTO 35004KT 10SM CLR 06/M02 A3031 RMK AO2 SLP265
T00611022 $





000
SAUS44 KEWX 150853
MTRATT
METAR KATT 150851Z AUTO 35006KT 10SM CLR 07/M02 A3030 RMK AO2 SLP261
T00671017 51006 $





000
SAUS44 KEWX 150752
MTRATT
METAR KATT 150751Z AUTO VRB03KT 10SM CLR 07/M01 A3029 RMK AO2 SLP259
T00721006 $





000
SAUS44 KEWX 150652
MTRATT
METAR KATT 150651Z AUTO VRB03KT 10SM CLR 08/M01 A3029 RMK AO2 SLP258
T00781006 $





000
SAUS44 KEWX 150552
MTRATT
METAR KATT 150551Z AUTO 34006KT 10SM CLR 08/00 A3028 RMK AO2 SLP257
T00830000 10139 20083 402280061 51025 $





000
SAUS44 KEWX 150452
MTRATT
METAR KATT 150451Z AUTO 34004KT 10SM CLR 09/00 A3026 RMK AO2 SLP249
T00890000 $





000
SAUS44 KEWX 150352
MTRATT
METAR KATT 150351Z AUTO 36007G15KT 10SM CLR 11/00 A3024 RMK AO2
SLP243 T01060000 $





000
SAUS44 KEWX 150252
MTRATT
METAR KATT 150251Z AUTO 35006KT 10SM CLR 11/01 A3021 RMK AO2 SLP231
T01060006 53039 $





000
SAUS44 KEWX 150152
MTRATT
METAR KATT 150151Z AUTO 36006G16KT 10SM CLR 12/01 A3016 RMK AO2
SLP215 T01170006 $





000
SAUS44 KEWX 150053
MTRATT
METAR KATT 150051Z AUTO 35012G19KT 10SM CLR 13/01 A3012 RMK AO2
SLP200 T01280006 $





000
SAUS44 KEWX 142352
MTRATT
METAR KATT 142351Z AUTO 36011G23KT 10SM CLR 14/01 A3009 RMK AO2 PK
WND 35028/2313 SLP188 T01390011 10167 20100 53020 $





000
SAUS44 KEWX 142252
MTRATT
METAR KATT 142251Z AUTO 34011G23KT 10SM CLR 16/02 A3007 RMK AO2 PK
WND 34026/2224 SLP175 T01560022 $





000
SAUS44 KEWX 142152
MTRATT
METAR KATT 142151Z AUTO 35015G29KT 10SM CLR 16/02 A3003 RMK AO2 PK
WND 01029/2140 SLP164 T01560022 $





000
SAUS44 KEWX 142052
MTRATT
METAR KATT 142051Z AUTO 34013G33KT 10SM CLR 16/03 A3003 RMK AO2 PK
WND 34033/2042 SLP163 T01560028 56012





000
SAUS44 KEWX 141953
MTRATT
METAR KATT 141951Z AUTO 34013G24KT 310V010 10SM CLR 16/04 A3003 RMK
AO2 PK WND 36029/1922 SLP163 T01610039 $





000
SAUS44 KEWX 141854
MTRATT
NO CARRIER

RING

CONNECT 1200

MIAMTRCTY ALL
TTAA00 KCTY 141853
METAR KCTY 141853Z AUTO 19012G19KT 27/18 A2995 RMK AO1 SLP142
T02670178





000
SAUS44 KEWX 141852
MTRATT
METAR KATT 141851Z AUTO 35014G27KT 10SM FEW036 FEW120 14/04 A3005
RMK AO2 PK WND 34028/1839 SLP169 T01390044





000
SAUS44 KEWX 141809 COR
MTRATT
SPECI KATT 141802Z AUTO 36010G17KT 10SM SCT027 BKN060 11/06 A3005
RMK AO2 T01110061





000
SAUS44 KEWX 141752
MTRATT
METAR KATT 141751Z AUTO 35009G21KT 10SM BKN027 BKN045 OVC060 10/06
A3007 RMK AO2 RAE11 TSE05 SLP178 P0002 60134 T01000056 10139 20061
51031





000
SAUS44 KEWX 141744
MTRATT
SPECI KATT 141743Z AUTO 35010G21KT 10SM BKN026 BKN045 10/06 A3006
RMK AO2 RAE11 TSE05 P0002 T01000056





000
SAUS44 KEWX 141712
MTRATT
SPECI KATT 141711Z AUTO 35009G16KT 10SM FEW027 BKN044 BKN070 09/07
A3005 RMK AO2 RAE11 TSE05 P0002 T00940067





000
SAUS44 KEWX 141652
MTRATT
METAR KATT 141651Z AUTO 32008G17KT 3SM TSRA BR FEW034 BKN070 OVC095
08/06 A3006 RMK AO2 RAE1559B04 SLP176 P0014 T00780056





000
SAUS44 KEWX 141637 COR
MTRATT
SPECI KATT 141632Z AUTO 36009G17KT 4SM TSRA BR BKN034 OVC040 07/05
A3006 RMK AO2 RAE1559B04 P0009 T00720050





000
SAUS44 KEWX 141625
MTRATT
SPECI KATT 141623Z AUTO 36007KT 2 1/2SM TSRA BR OVC032 07/05 A3009
RMK AO2 RAE1559B04 P0007 T00720050





000
SAUS44 KEWX 141601
MTRATT
SPECI KATT 141600Z AUTO VRB06G17KT 10SM TS FEW026 BKN030 OVC047
07/05 A3008 RMK AO2 RAE1559 P0000 T00720050





000
SAUS44 KEWX 141552
MTRATT
METAR KATT 141551Z AUTO 33007G18KT 290V010 7SM -TSRA OVC029 07/05
A3004 RMK AO2 PK WND 36029/1453 PRESRR SLP169 P0118 T00720050





000
SAUS44 KEWX 141546
MTRATT
SPECI KATT 141544Z AUTO 32011G18KT 2SM TSRA BR BKN027 OVC070 07/05
A3003 RMK AO2 PK WND 36029/1453 P0118 T00670050





000
SAUS44 KEWX 141539
MTRATT
SPECI KATT 141538Z AUTO 30009G25KT 3/4SM +TSRA BR BKN025 OVC070
07/05 A3003 RMK AO2 PK WND 36029/1453 PRESRR P0114 T00670050





000
SAUS44 KEWX 141522
MTRATT
SPECI KATT 141521Z AUTO 35008G17KT 1/4SM +TSRA FG BKN018 OVC026
06/05 A3000 RMK AO2 PK WND 36029/1453 P0052 T00610050





000
SAUS44 KEWX 141514
MTRATT
SPECI KATT 141513Z AUTO 33008G22KT 270V010 1 1/2SM +TSRA BR FEW018
OVC026 07/05 A2999 RMK AO2 PK WND 36029/1453 P0005 T00720050





000
SAUS44 KEWX 141452
MTRATT
METAR KATT 141451Z AUTO 35014G26KT 10SM -TSRA FEW019 OVC025 08/04
A2997 RMK AO2 PK WND 34026/1448 RAB1353 TSB02E22B41B50 SLP145 P0000
60000 T00830044 51025





000
SAUS44 KEWX 141449
MTRATT
SPECI KATT 141447Z AUTO 34011G20KT 10SM -TSRA FEW019 OVC025 08/05
A2997 RMK AO2 RAB1353 TSB02E22B41 P0000





000
SAUS44 KEWX 141424
MTRATT
SPECI KATT 141423Z AUTO VRB05G16KT 10SM -RA SCT020 OVC025 09/06
A2995 RMK AO2 RAB1353 TSB02E22 P0000 T00940061





000
SAUS44 KEWX 141352
MTRATT
METAR KATT 141351Z AUTO 35009G21KT 10SM TS OVC021 11/06 A2994 RMK
AO2 TSB25B31 SLP134 T01110061





000
SAUS44 KEWX 141332
MTRATT
SPECI KATT 141331Z AUTO 35015G23KT 10SM TS OVC023 12/06 A2993 RMK
AO2 TSB25B31 PRESRR T01170061 $





000
SAUS44 KEWX 141252
MTRATT
METAR KATT 141251Z AUTO 34009G30KT 290V020 10SM OVC021 12/07 A2989
RMK AO2 PK WND 34030/1245 RAB1159E08 SLP117 P0000 T01220072 $





000
SAUS44 KEWX 141153
MTRATT
METAR KATT 141151Z AUTO 36015G24KT 10SM FEW010 BKN017 OVC026 14/11
A2982 RMK AO2 PK WND 35026/1124 RAB42E51 PRESRR SLP090 P0000 60000
T01390106 10228 20139 53040 $





000
SAUS44 KEWX 141132
MTRATT
SPECI KATT 141131Z AUTO 35010G26KT 9SM SCT009 BKN021 OVC026 17/13
A2979 RMK AO2 PK WND 35026/1124 PRESRR T01670133 $





000
SAUS44 KEWX 141053
MTRATT
METAR KATT 141051Z AUTO 00000KT 5SM BR OVC023 23/21 A2972 RMK AO2
SLP053 T02280206 $





000
SAUS44 KEWX 140952
MTRATT
METAR KATT 140951Z AUTO 00000KT 6SM BR OVC019 23/21 A2970 RMK AO2
SLP047 T02280206 $





000
SAUS44 KEWX 140853
MTRATT
METAR KATT 140851Z AUTO 16004KT 6SM BR OVC018 23/21 A2970 RMK AO2
SLP046 T02280206 58006 $





000
SAUS44 KEWX 140826
MTRATT
SPECI KATT 140824Z AUTO 17005KT 6SM BR FEW012 OVC019 23/21 A2970 RMK
AO2 T02280206 $





000
SAUS44 KEWX 140752
MTRATT
METAR KATT 140751Z AUTO 17005KT 6SM BR OVC014 23/21 A2971 RMK AO2
SLP048 T02280206 $





000
SAUS44 KEWX 140652
MTRATT
METAR KATT 140651Z AUTO 17005KT 6SM HZ OVC010 23/20 A2972 RMK AO2
SLP053 T02280200 $





000
SAUS44 KEWX 140648
MTRATT
SPECI KATT 140647Z AUTO 17005KT 6SM HZ OVC010 23/20 A2972 RMK AO2
CIG 009V013 $





000
SAUS44 KEWX 140552
MTRATT
METAR KATT 140551Z AUTO 16005KT 6SM BR OVC009 22/20 A2973 RMK AO2
SLP056 T02220200 10256 20222 402560200 51007 $





000
SAUS44 KEWX 140452
MTRATT
METAR KATT 140451Z AUTO VRB05KT 8SM OVC009 22/20 A2972 RMK AO2
SLP056 T02220200 $





    US Dept of Commerce
    National Oceanic and Atmospheric Administration
    National Weather Service
    1325 East West Highway
    Silver Spring, MD 20910
    Page Author: NWS Internet Services Team
Disclaimer
Information Quality
Credits
Glossary
Privacy Policy
Freedom of Information Act (FOIA)
About Us
Career Opportunities